Time;durP1;ratioP1;P1;durP2;ratioP2;P2;SDS_P1;SDS_P2;PMS_P1;PMS_P2;Temp;Humidity;BMP_temperature;BMP_pressure;BME280_temperature;BME280_humidity;BME280_pressure;Samples;Min_cycle;Max_cycle;Signal;HPM_P1;HPM_P2
2024/01/23 00:02:37;;;;;;;132.43;67.07;;;;;;;-1.80;100.00;101149.75;5551358;32;34178;-68
2024/01/23 00:05:40;;;;;;;135.55;69.95;;;;;;;-1.79;100.00;101151.44;5551085;32;34718;-68
2024/01/23 00:08:43;;;;;;;132.15;67.20;;;;;;;-1.78;100.00;101164.38;5550933;32;34276;-68
2024/01/23 00:11:46;;;;;;;135.55;69.95;;;;;;;-1.70;100.00;101169.25;5550984;32;34790;-67
2024/01/23 00:14:49;;;;;;;130.20;65.97;;;;;;;-1.77;100.00;101160.00;5550839;32;34069;-67
2024/01/23 00:17:52;;;;;;;120.32;64.12;;;;;;;-1.60;100.00;101143.62;5549996;32;34119;-67
2024/01/23 00:20:55;;;;;;;129.65;66.28;;;;;;;-1.64;100.00;101149.88;5550735;32;34285;-68
2024/01/23 00:23:58;;;;;;;124.60;66.43;;;;;;;-1.77;100.00;101152.22;5550842;32;34807;-67
2024/01/23 00:27:01;;;;;;;133.12;69.20;;;;;;;-1.56;100.00;101168.59;5551034;32;34048;-67
2024/01/23 00:30:05;;;;;;;135.48;68.82;;;;;;;-1.65;100.00;101149.06;5550609;32;33965;-68
2024/01/23 00:33:08;;;;;;;131.93;68.80;;;;;;;-1.79;100.00;101130.62;5549810;32;34094;-67
2024/01/23 00:36:11;;;;;;;140.52;69.90;;;;;;;-1.76;100.00;101126.16;5550502;32;34805;-67
2024/01/23 00:39:13;;;;;;;139.40;69.30;;;;;;;-1.78;100.00;101137.50;5550382;32;34966;-67
2024/01/23 00:42:17;;;;;;;137.10;69.68;;;;;;;-1.66;100.00;101129.16;5550535;32;33999;-67
2024/01/23 00:45:20;;;;;;;143.20;70.70;;;;;;;-1.72;100.00;101106.03;5550477;32;34016;-67
2024/01/23 00:48:23;;;;;;;135.65;69.43;;;;;;;-1.68;100.00;101104.97;5549667;32;34046;-66
2024/01/23 00:51:26;;;;;;;138.27;68.57;;;;;;;-1.58;100.00;101093.22;5550335;32;34350;-67
2024/01/23 00:54:29;;;;;;;133.25;67.62;;;;;;;-1.72;100.00;101103.44;5550555;32;34106;-67
2024/01/23 00:57:32;;;;;;;125.65;64.47;;;;;;;-1.71;100.00;101123.31;5550376;32;34223;-67
2024/01/23 01:00:35;;;;;;;116.55;62.45;;;;;;;-1.63;100.00;101133.34;5550329;32;34087;-67
2024/01/23 01:03:39;;;;;;;123.53;61.35;;;;;;;-1.62;100.00;101135.06;5550316;32;34781;-67
2024/01/23 01:06:43;;;;;;;125.70;64.82;;;;;;;-1.55;100.00;101136.47;5550175;32;34896;-67
2024/01/23 01:09:46;;;;;;;126.45;66.35;;;;;;;-1.49;100.00;101146.56;5550259;32;34262;-68
2024/01/23 01:12:48;;;;;;;113.22;60.63;;;;;;;-1.56;100.00;101142.56;5549544;32;34773;-69
2024/01/23 01:15:51;;;;;;;120.30;63.38;;;;;;;-1.51;100.00;101148.41;5549548;32;34188;-67
2024/01/23 01:18:54;;;;;;;116.70;62.65;;;;;;;-1.60;100.00;101135.84;5550357;32;34768;-67
2024/01/23 01:21:57;;;;;;;118.70;63.00;;;;;;;-1.65;100.00;101130.00;5550303;32;34264;-68
2024/01/23 01:25:01;;;;;;;121.20;62.50;;;;;;;-1.43;100.00;101135.88;5550172;32;34708;-67
2024/01/23 01:28:04;;;;;;;117.13;64.43;;;;;;;-1.56;100.00;101126.97;5550112;32;34267;-68
2024/01/23 01:31:07;;;;;;;117.72;61.80;;;;;;;-1.48;100.00;101127.44;5550240;32;34858;-68
2024/01/23 01:34:10;;;;;;;121.25;64.60;;;;;;;-1.46;100.00;101129.06;5550520;32;34028;-68
2024/01/23 01:37:13;;;;;;;121.32;64.53;;;;;;;-1.44;100.00;101122.00;5549278;32;34785;-67
2024/01/23 01:40:16;;;;;;;125.65;64.53;;;;;;;-1.56;100.00;101116.56;5549924;32;34385;-67
2024/01/23 01:43:23;;;;;;;121.90;63.60;;;;;;;-1.51;100.00;101125.00;5550144;32;34170;-66
2024/01/23 01:46:26;;;;;;;124.30;64.93;;;;;;;-1.55;100.00;101121.66;5550099;32;34730;-67
2024/01/23 01:49:29;;;;;;;123.40;65.72;;;;;;;-1.50;100.00;101111.87;5550063;32;34111;-68
2024/01/23 01:52:32;;;;;;;129.63;66.93;;;;;;;-1.60;100.00;101107.22;5550029;32;34096;-68
2024/01/23 01:55:35;;;;;;;122.93;65.20;;;;;;;-1.63;100.00;101104.75;5550000;32;34184;-67
2024/01/23 01:58:42;;;;;;;126.68;65.85;;;;;;;-1.49;100.00;101094.50;5549895;32;34168;-67
2024/01/23 02:01:47;;;;;;;120.37;64.70;;;;;;;-1.57;100.00;101094.06;5550274;32;34726;-67
2024/01/23 02:04:51;;;;;;;128.90;67.57;;;;;;;-1.61;100.00;101089.91;5550039;32;33978;-67
2024/01/23 02:07:53;;;;;;;123.70;63.80;;;;;;;-1.66;100.00;101087.53;5549873;32;34205;-67
2024/01/23 02:10:56;;;;;;;119.55;63.28;;;;;;;-1.63;100.00;101089.12;5549710;32;34223;-67
2024/01/23 02:13:59;;;;;;;123.13;63.65;;;;;;;-1.59;100.00;101085.47;5549162;32;34346;-68
2024/01/23 02:17:02;;;;;;;123.38;65.18;;;;;;;-1.65;100.00;101073.63;5549758;32;34253;-67
2024/01/23 02:20:05;;;;;;;125.43;64.80;;;;;;;-1.56;100.00;101067.97;5549016;32;34243;-68
2024/01/23 02:23:16;;;;;;;116.28;62.15;;;;;;;-1.56;100.00;101072.31;5549785;32;34212;-67
2024/01/23 02:26:19;;;;;;;119.32;61.08;;;;;;;-1.58;100.00;101074.16;5549781;32;34049;-67
2024/01/23 02:29:22;;;;;;;114.53;62.62;;;;;;;-1.46;100.00;101071.81;5549870;32;34058;-67
2024/01/23 02:32:24;;;;;;;116.47;60.12;;;;;;;-1.41;100.00;101069.84;5549400;32;33996;-68
2024/01/23 02:35:27;;;;;;;114.68;59.90;;;;;;;-1.50;100.00;101085.88;5549655;32;34017;-67
2024/01/23 02:38:30;;;;;;;108.53;59.00;;;;;;;-1.52;100.00;101098.13;5548805;32;34801;-67
2024/01/23 02:41:33;;;;;;;114.85;60.10;;;;;;;-1.41;100.00;101089.81;5549389;32;34982;-67
2024/01/23 02:44:36;;;;;;;114.70;60.60;;;;;;;-1.32;100.00;101086.75;5549489;32;34151;-68
2024/01/23 02:47:38;;;;;;;115.20;61.58;;;;;;;-1.59;100.00;101080.25;5548724;32;34232;-67
2024/01/23 02:50:41;;;;;;;115.97;63.15;;;;;;;-1.59;100.00;101069.84;5549537;32;34144;-67
2024/01/23 02:53:44;;;;;;;118.87;62.20;;;;;;;-1.60;100.00;101081.19;5548804;32;33042;-67
2024/01/23 02:56:47;;;;;;;114.55;62.08;;;;;;;-1.41;100.00;101098.47;5549420;32;34032;-68
2024/01/23 02:59:50;;;;;;;118.93;61.40;;;;;;;-1.45;100.00;101101.25;5548743;32;34083;-67
2024/01/23 03:02:52;;;;;;;120.07;62.65;;;;;;;-1.58;100.00;101105.38;5549493;32;33597;-67
2024/01/23 03:05:55;;;;;;;116.60;59.60;;;;;;;-1.43;100.00;101120.25;5549370;32;34759;-67
2024/01/23 03:08:58;;;;;;;110.50;58.35;;;;;;;-1.37;100.00;101110.41;5549250;32;34743;-67
2024/01/23 03:12:13;;;;;;;106.05;56.65;;;;;;;-1.30;100.00;101113.53;5548159;32;34842;-67
2024/01/23 03:15:16;;;;;;;108.12;56.88;;;;;;;-1.40;100.00;101113.12;5549076;32;34697;-67
2024/01/23 03:18:19;;;;;;;112.00;57.78;;;;;;;-1.50;100.00;101108.47;5549002;32;34139;-67
2024/01/23 03:21:23;;;;;;;108.70;57.38;;;;;;;-1.46;100.00;101103.03;5548839;32;34804;-67
2024/01/23 03:24:26;;;;;;;107.07;56.33;;;;;;;-1.49;100.00;101100.56;5548993;32;34652;-67
2024/01/23 03:27:29;;;;;;;106.78;56.53;;;;;;;-1.46;100.00;101097.00;5550909;32;34168;-67
2024/01/23 03:30:32;;;;;;;108.18;57.83;;;;;;;-1.37;100.00;101109.56;5550425;32;34183;-67
2024/01/23 03:33:35;;;;;;;115.05;60.20;;;;;;;-1.22;100.00;101116.62;5551062;32;34211;-68
2024/01/23 03:36:38;;;;;;;118.65;62.00;;;;;;;-1.26;100.00;101107.28;5551157;32;34269;-67
2024/01/23 03:39:41;;;;;;;124.07;63.45;;;;;;;-1.39;100.00;101096.59;5551458;32;33993;-67
2024/01/23 03:42:44;;;;;;;125.40;63.65;;;;;;;-1.26;100.00;101096.03;5550204;32;34298;-67
2024/01/23 03:45:47;;;;;;;125.28;64.12;;;;;;;-1.33;100.00;101100.66;5551101;32;34128;-67
2024/01/23 03:48:50;;;;;;;123.30;64.00;;;;;;;-1.38;100.00;101107.87;5551482;32;34076;-67
2024/01/23 03:51:53;;;;;;;124.68;64.57;;;;;;;-1.46;100.00;101094.37;5551031;32;33886;-67
2024/01/23 03:54:56;;;;;;;139.23;67.97;;;;;;;-1.48;100.00;101072.78;5551263;32;34174;-68
2024/01/23 03:57:58;;;;;;;133.20;65.90;;;;;;;-1.54;100.00;101070.47;5550983;32;34128;-67
2024/01/23 04:01:01;;;;;;;128.82;66.00;;;;;;;-1.41;100.00;101090.66;5551016;32;34009;-68
2024/01/23 04:04:05;;;;;;;124.95;63.92;;;;;;;-1.51;100.00;101098.97;5550901;32;34748;-68
2024/01/23 04:07:08;;;;;;;122.68;65.18;;;;;;;-1.39;100.00;101086.19;5550985;32;34072;-67
2024/01/23 04:10:11;;;;;;;125.85;65.93;;;;;;;-1.51;100.00;101101.56;5550910;32;34112;-67
2024/01/23 04:13:14;;;;;;;118.00;60.10;;;;;;;-1.51;100.00;101089.41;5550453;32;34346;-68
2024/01/23 04:16:17;;;;;;;118.82;61.28;;;;;;;-1.42;100.00;101091.56;5550866;32;34778;-67
2024/01/23 04:19:20;;;;;;;109.07;57.45;;;;;;;-1.36;100.00;101106.03;5550956;32;34839;-67
2024/01/23 04:22:23;;;;;;;119.97;61.75;;;;;;;-1.29;100.00;101104.81;5550753;32;34752;-67
2024/01/23 04:25:26;;;;;;;109.80;60.25;;;;;;;-1.26;100.00;101102.06;5550374;32;34412;-68
2024/01/23 04:28:28;;;;;;;112.40;59.45;;;;;;;-1.35;100.00;101107.69;5550900;32;33959;-68
2024/01/23 04:31:31;;;;;;;117.97;60.35;;;;;;;-1.35;100.00;101116.34;5550552;32;34941;-67
2024/01/23 04:34:34;;;;;;;109.20;58.80;;;;;;;-1.39;100.00;101127.00;5550530;32;34114;-67
2024/01/23 04:37:37;;;;;;;106.60;56.95;;;;;;;-1.24;100.00;101123.66;5549546;32;34693;-69
2024/01/23 04:40:40;;;;;;;117.25;61.85;;;;;;;-1.24;100.00;101125.41;5549840;32;34595;-67
2024/01/23 04:43:42;;;;;;;114.93;60.63;;;;;;;-1.33;100.00;101121.50;5550413;32;34775;-68
2024/01/23 04:46:45;;;;;;;114.60;60.70;;;;;;;-1.30;100.00;101134.34;5549728;32;33952;-69
2024/01/23 04:49:48;;;;;;;110.07;60.12;;;;;;;-1.24;100.00;101122.81;5550609;32;34211;-68
2024/01/23 04:52:56;;;;;;;108.12;58.85;;;;;;;-1.40;100.00;101123.53;5550571;32;34044;-69
2024/01/23 04:55:59;;;;;;;111.95;58.80;;;;;;;-1.45;100.00;101119.47;5550458;32;35590;-68
2024/01/23 04:59:02;;;;;;;112.60;59.17;;;;;;;-1.36;100.00;101138.13;5549699;32;34046;-68
2024/01/23 05:02:05;;;;;;;113.60;62.62;;;;;;;-1.32;100.00;101137.06;5550836;32;34356;-68
2024/01/23 05:05:08;;;;;;;109.75;60.40;;;;;;;-1.30;100.00;101139.56;5549796;32;33993;-68
2024/01/23 05:08:11;;;;;;;109.12;59.13;;;;;;;-1.18;100.00;101141.59;5550474;32;34306;-68
2024/01/23 05:11:14;;;;;;;113.22;62.17;;;;;;;-1.23;100.00;101145.31;5550686;32;34108;-68
2024/01/23 05:14:17;;;;;;;112.15;59.65;;;;;;;-1.31;100.00;101143.09;5549358;32;34385;-69
2024/01/23 05:17:20;;;;;;;111.57;59.88;;;;;;;-1.24;100.00;101146.22;5550314;32;34897;-68
2024/01/23 05:20:23;;;;;;;109.82;58.78;;;;;;;-1.07;100.00;101146.28;5550596;32;34013;-68
2024/01/23 05:23:26;;;;;;;110.32;58.87;;;;;;;-1.18;100.00;101149.37;5550215;32;34929;-68
2024/01/23 05:26:29;;;;;;;111.32;58.92;;;;;;;-1.24;100.00;101135.81;5550209;32;34175;-67
2024/01/23 05:29:31;;;;;;;106.03;58.65;;;;;;;-1.14;100.00;101129.25;5549943;32;34150;-68
2024/01/23 05:32:34;;;;;;;110.88;60.25;;;;;;;-1.28;100.00;101139.50;5550100;32;34987;-68
2024/01/23 05:35:37;;;;;;;113.72;61.55;;;;;;;-1.23;100.00;101133.16;5550147;32;34151;-68
2024/01/23 05:38:40;;;;;;;113.85;60.50;;;;;;;-1.27;100.00;101143.78;5550048;32;34827;-69
2024/01/23 05:41:43;;;;;;;119.25;62.47;;;;;;;-1.37;100.00;101141.63;5550101;32;34193;-68
2024/01/23 05:44:45;;;;;;;116.85;62.92;;;;;;;-1.43;100.00;101135.88;5549900;32;34394;-69
2024/01/23 05:47:48;;;;;;;115.28;63.38;;;;;;;-1.42;100.00;101140.16;5549286;32;34242;-68
2024/01/23 05:50:51;;;;;;;108.37;59.20;;;;;;;-1.40;100.00;101143.50;5549930;32;34080;-68
2024/01/23 05:53:54;;;;;;;113.47;60.78;;;;;;;-1.54;100.00;101157.19;5549781;32;34517;-68
2024/01/23 05:56:56;;;;;;;109.85;60.03;;;;;;;-1.64;100.00;101162.87;5549654;32;33367;-68
2024/01/23 06:00:03;;;;;;;110.82;59.50;;;;;;;-1.68;100.00;101180.41;5549842;32;34715;-69
2024/01/23 06:03:06;;;;;;;111.05;59.97;;;;;;;-1.71;100.00;101180.56;5549160;32;35071;-68
2024/01/23 06:06:09;;;;;;;110.57;59.78;;;;;;;-1.72;100.00;101181.47;5549913;32;34902;-68
2024/01/23 06:09:12;;;;;;;111.55;61.88;;;;;;;-1.60;100.00;101199.13;5549844;32;34818;-69
2024/01/23 06:12:15;;;;;;;115.15;61.13;;;;;;;-1.61;100.00;101192.22;5549763;32;34135;-69
2024/01/23 06:15:18;;;;;;;112.22;60.03;;;;;;;-1.61;100.00;101194.81;5549436;32;34819;-69
2024/01/23 06:18:21;;;;;;;114.00;62.17;;;;;;;-1.57;100.00;101201.56;5548911;32;34053;-68
2024/01/23 06:21:24;;;;;;;113.22;60.78;;;;;;;-1.50;100.00;101202.97;5549132;32;34724;-69
2024/01/23 06:24:28;;;;;;;115.80;62.58;;;;;;;-1.46;100.00;101219.28;5549894;32;34052;-69
2024/01/23 06:27:31;;;;;;;123.95;67.37;;;;;;;-1.40;100.00;101226.78;5549492;32;34145;-69
2024/01/23 06:30:34;;;;;;;109.80;60.63;;;;;;;-1.38;100.00;101222.38;5543480;32;168632;-69
2024/01/23 06:33:37;;;;;;;110.55;61.83;;;;;;;-1.24;100.00;101219.97;5549201;32;34338;-69
2024/01/23 06:36:45;;;;;;;109.03;59.92;;;;;;;-1.14;100.00;101223.81;5549361;32;34284;-70
2024/01/23 06:39:48;;;;;;;114.65;62.67;;;;;;;-1.03;100.00;101216.34;5549290;32;34524;-69
2024/01/23 06:42:51;;;;;;;111.37;60.03;;;;;;;-0.94;100.00;101231.53;5548460;32;34777;-69
2024/01/23 06:45:55;;;;;;;107.93;57.97;;;;;;;-0.90;100.00;101237.44;5547772;32;34974;-70
2024/01/23 06:48:58;;;;;;;102.90;59.22;;;;;;;-0.80;100.00;101225.66;5547685;32;34696;-69
2024/01/23 06:52:01;;;;;;;102.62;58.08;;;;;;;-0.67;100.00;101231.94;5548987;32;34333;-69
2024/01/23 06:55:04;;;;;;;102.90;58.60;;;;;;;-0.51;100.00;101234.63;5548964;32;34771;-69
2024/01/23 06:58:07;;;;;;;102.10;57.55;;;;;;;-0.45;100.00;101243.00;5549438;32;34078;-69
2024/01/23 07:01:10;;;;;;;105.50;59.13;;;;;;;-0.34;100.00;101257.25;5548811;32;34021;-69
2024/01/23 07:04:12;;;;;;;106.25;59.95;;;;;;;-0.25;100.00;101251.56;5548192;32;34267;-69
2024/01/23 07:07:16;;;;;;;103.55;59.70;;;;;;;-0.23;100.00;101253.16;5549269;32;35462;-70
2024/01/23 07:10:19;;;;;;;106.32;60.85;;;;;;;-0.14;100.00;101262.28;5548944;32;34015;-69
2024/01/23 07:13:21;;;;;;;103.68;59.45;;;;;;;-0.09;100.00;101282.00;5548150;32;34627;-69
2024/01/23 07:16:24;;;;;;;97.10;56.45;;;;;;;-0.08;100.00;101277.63;5548766;32;35796;-69
2024/01/23 07:19:27;;;;;;;94.10;55.00;;;;;;;-0.03;100.00;101306.94;5549068;32;34400;-69
2024/01/23 07:22:30;;;;;;;94.07;53.53;;;;;;;0.04;100.00;101304.87;5548640;32;34093;-70
2024/01/23 07:25:33;;;;;;;83.70;50.95;;;;;;;0.11;100.00;101296.62;5547602;32;34687;-69
2024/01/23 07:28:35;;;;;;;84.53;49.70;;;;;;;0.17;100.00;101283.28;5548662;32;34149;-70
2024/01/23 07:31:42;;;;;;;84.90;50.90;;;;;;;0.24;100.00;101287.22;5547495;32;33991;-69
2024/01/23 07:34:45;;;;;;;82.30;50.28;;;;;;;0.36;100.00;101294.44;5548649;32;34182;-69
2024/01/23 07:37:50;;;;;;;80.32;48.45;;;;;;;0.37;100.00;101287.47;5548738;32;34692;-69
2024/01/23 07:40:52;;;;;;;76.15;46.55;;;;;;;0.46;100.00;101279.12;5548469;32;34653;-69
2024/01/23 07:43:55;;;;;;;78.65;48.10;;;;;;;0.50;100.00;101285.03;5547830;32;33532;-70
2024/01/23 07:46:59;;;;;;;82.10;50.55;;;;;;;0.61;100.00;101282.69;5547423;32;34396;-70
2024/01/23 07:50:03;;;;;;;77.22;47.40;;;;;;;0.80;100.00;101280.78;5548270;32;34798;-69
2024/01/23 07:53:06;;;;;;;79.22;49.35;;;;;;;0.76;100.00;101290.56;5548194;32;34260;-69
2024/01/23 07:56:09;;;;;;;79.68;48.95;;;;;;;0.91;100.00;101301.94;5548510;32;34728;-69
2024/01/23 07:59:14;;;;;;;79.53;47.95;;;;;;;0.78;100.00;101280.84;5548411;32;34311;-70
2024/01/23 08:02:17;;;;;;;75.00;47.28;;;;;;;0.98;100.00;101276.28;5548326;32;34092;-69
2024/01/23 08:05:20;;;;;;;79.93;48.45;;;;;;;0.88;100.00;101273.34;5548788;32;34807;-71
2024/01/23 08:08:23;;;;;;;86.53;51.13;;;;;;;0.94;100.00;101270.41;5548267;32;34036;-68
2024/01/23 08:11:26;;;;;;;94.60;56.65;;;;;;;0.95;100.00;101286.94;5548574;32;34025;-69
2024/01/23 08:14:29;;;;;;;101.12;58.70;;;;;;;0.70;100.00;101292.62;5551115;32;34093;-69
2024/01/23 08:17:32;;;;;;;105.32;62.03;;;;;;;0.55;100.00;101315.19;5549847;32;34523;-69
2024/01/23 08:20:34;;;;;;;104.55;59.35;;;;;;;0.43;100.00;101305.41;5551081;32;34685;-69
2024/01/23 08:23:37;;;;;;;97.45;58.33;;;;;;;0.56;100.00;101335.16;5550721;32;34288;-70
2024/01/23 08:26:40;;;;;;;105.53;60.60;;;;;;;0.79;100.00;101334.78;5537148;32;34097;-70
2024/01/23 08:29:44;;;;;;;96.68;57.53;;;;;;;0.98;100.00;101331.16;5550459;32;34093;-70
2024/01/23 08:32:47;;;;;;;99.28;59.20;;;;;;;1.09;100.00;101331.44;5550492;32;34113;-70
2024/01/23 08:35:50;;;;;;;93.80;57.35;;;;;;;0.96;100.00;101341.72;5550551;32;35038;-70
2024/01/23 08:38:53;;;;;;;99.20;57.67;;;;;;;1.33;100.00;101344.91;5550822;32;34771;-70
2024/01/23 08:41:56;;;;;;;101.20;59.90;;;;;;;1.51;100.00;101336.88;5550499;32;34117;-71
2024/01/23 08:44:59;;;;;;;105.00;57.60;;;;;;;1.48;100.00;101337.06;5550170;32;34683;-69
2024/01/23 08:48:03;;;;;;;95.25;55.90;;;;;;;1.92;100.00;101342.37;5550231;32;34893;-70
2024/01/23 08:51:05;;;;;;;91.32;54.85;;;;;;;1.92;100.00;101344.12;5550251;32;34012;-70
2024/01/23 08:54:09;;;;;;;92.37;53.60;;;;;;;1.68;100.00;101346.38;5550356;32;33992;-70
2024/01/23 08:57:11;;;;;;;89.05;54.10;;;;;;;1.68;100.00;101342.00;5550371;32;34691;-70
2024/01/23 09:00:15;;;;;;;89.15;53.42;;;;;;;2.23;100.00;101344.00;5550293;32;34071;-71
2024/01/23 09:03:18;;;;;;;88.70;52.92;;;;;;;2.22;100.00;101342.34;5550192;32;35043;-70
2024/01/23 09:06:21;;;;;;;85.85;52.70;;;;;;;1.90;100.00;101345.97;5550070;32;35023;-71
2024/01/23 09:09:24;;;;;;;87.10;52.95;;;;;;;2.29;100.00;101343.66;5550597;32;34047;-70
2024/01/23 09:12:29;;;;;;;86.20;52.08;;;;;;;2.28;100.00;101348.97;5549441;32;33972;-71
2024/01/23 09:15:32;;;;;;;86.07;53.42;;;;;;;2.50;100.00;101350.22;5549943;32;34013;-71
2024/01/23 09:18:37;;;;;;;88.60;54.40;;;;;;;2.62;100.00;101341.59;5550121;32;34380;-70
2024/01/23 09:21:40;;;;;;;88.20;53.03;;;;;;;2.58;100.00;101336.66;5550170;32;34140;-70
2024/01/23 09:24:43;;;;;;;89.22;54.75;;;;;;;2.69;100.00;101347.31;5549445;32;34772;-72
2024/01/23 09:27:49;;;;;;;87.47;53.40;;;;;;;2.51;100.00;101358.94;5549455;32;34081;-73
2024/01/23 09:30:55;;;;;;;97.07;57.33;;;;;;;2.09;100.00;101355.28;5550229;32;35061;-72
2024/01/23 09:33:58;;;;;;;96.93;60.17;;;;;;;1.36;100.00;101353.41;5550258;32;34858;-73
2024/01/23 09:37:02;;;;;;;102.65;61.47;;;;;;;1.28;100.00;101351.25;5550343;32;34173;-73
2024/01/23 09:40:08;;;;;;;99.53;60.38;;;;;;;1.59;100.00;101353.00;5550049;32;34210;-72
2024/01/23 09:43:15;;;;;;;100.78;61.00;;;;;;;2.04;100.00;101357.34;5549815;32;34836;-74
2024/01/23 09:46:19;;;;;;;100.57;59.08;;;;;;;2.22;100.00;101349.34;5549990;32;34173;-74
2024/01/23 09:49:22;;;;;;;95.03;57.08;;;;;;;2.41;100.00;101353.41;5550426;32;34419;-73
2024/01/23 09:52:26;;;;;;;106.00;60.72;;;;;;;2.50;100.00;101355.47;5549389;32;33952;-73
2024/01/23 09:55:29;;;;;;;103.95;60.08;;;;;;;2.32;100.00;101353.09;5549849;32;34147;-73
2024/01/23 09:58:32;;;;;;;104.40;61.37;;;;;;;1.99;100.00;101337.59;5550341;32;33978;-71
2024/01/23 10:01:36;;;;;;;98.87;59.65;;;;;;;2.18;100.00;101338.19;5549964;32;33990;-73
2024/01/23 10:04:41;;;;;;;100.50;59.88;;;;;;;2.01;100.00;101339.22;5549873;32;34291;-72
2024/01/23 10:07:44;;;;;;;98.65;59.50;;;;;;;1.87;100.00;101351.41;5550103;32;34691;-74
2024/01/23 10:10:56;;;;;;;92.93;58.13;;;;;;;1.73;100.00;101344.34;5549751;32;34092;-73
2024/01/23 10:14:01;;;;;;;96.32;58.72;;;;;;;1.73;100.00;101357.44;5549654;32;34138;-72
2024/01/23 10:17:04;;;;;;;99.37;60.10;;;;;;;1.61;100.00;101351.13;5550317;32;34005;-72
2024/01/23 10:20:10;;;;;;;98.87;60.92;;;;;;;1.68;100.00;101346.38;5548959;32;34368;-73
2024/01/23 10:23:14;;;;;;;110.55;63.40;;;;;;;1.69;100.00;101337.63;5549200;32;35017;-72
2024/01/23 10:26:17;;;;;;;98.75;61.03;;;;;;;1.73;100.00;101337.34;5548763;32;34066;-73
2024/01/23 10:29:22;;;;;;;101.32;61.45;;;;;;;1.84;100.00;101338.50;5549517;32;34124;-73
2024/01/23 10:32:26;;;;;;;97.12;60.53;;;;;;;1.86;100.00;101340.09;5548911;32;34749;-71
2024/01/23 10:35:33;;;;;;;100.00;59.95;;;;;;;1.85;100.00;101337.56;5548107;32;34744;-73
2024/01/23 10:38:36;;;;;;;101.32;62.42;;;;;;;1.89;100.00;101339.09;5549901;32;34754;-72
2024/01/23 10:41:40;;;;;;;99.45;61.17;;;;;;;1.87;100.00;101336.56;5550204;32;34158;-72
2024/01/23 10:44:45;;;;;;;107.07;62.22;;;;;;;1.96;100.00;101333.41;5550543;32;32767;-72
2024/01/23 10:47:48;;;;;;;96.43;57.85;;;;;;;2.14;100.00;101334.09;5549380;32;34125;-73
2024/01/23 10:50:56;;;;;;;101.05;60.90;;;;;;;2.30;100.00;101321.78;5549954;32;33848;-72
2024/01/23 10:54:08;;;;;;;90.32;56.85;;;;;;;2.32;100.00;101314.69;5549767;32;33100;-73
2024/01/23 10:57:19;;;;;;;91.75;56.90;;;;;;;2.43;100.00;101312.22;5549346;32;34019;-72
2024/01/23 11:00:23;;;;;;;94.20;56.10;;;;;;;2.61;100.00;101316.34;5549523;32;33998;-72
2024/01/23 11:03:26;;;;;;;94.82;56.22;;;;;;;2.68;100.00;101313.34;5548742;32;34728;-72
2024/01/23 11:06:34;;;;;;;94.18;56.95;;;;;;;2.69;100.00;101318.50;5549586;32;34062;-73
2024/01/23 11:09:47;;;;;;;90.70;55.95;;;;;;;2.73;100.00;101317.38;5549141;32;34154;-71
2024/01/23 11:13:04;;;;;;;87.53;53.63;;;;;;;2.97;100.00;101310.59;5549186;32;34257;-73
2024/01/23 11:16:09;;;;;;;91.75;55.92;;;;;;;2.95;100.00;101311.66;5549160;32;34746;-72
2024/01/23 11:19:13;;;;;;;88.80;55.00;;;;;;;3.01;100.00;101317.34;5548407;32;34108;-72
2024/01/23 11:22:22;;;;;;;85.00;53.15;;;;;;;3.04;100.00;101311.06;5548098;32;34258;-71
2024/01/23 11:25:25;;;;;;;75.12;49.60;;;;;;;3.14;100.00;101308.72;5549073;32;34736;-70
2024/01/23 11:28:32;;;;;;;80.05;51.17;;;;;;;3.14;100.00;101293.81;5548804;32;34135;-70
2024/01/23 11:31:39;;;;;;;74.15;47.67;;;;;;;3.10;100.00;101301.97;5548786;32;34713;-69
2024/01/23 11:34:42;;;;;;;73.05;47.60;;;;;;;3.19;100.00;101288.28;5548661;32;34184;-71
2024/01/23 11:37:55;;;;;;;76.05;47.60;;;;;;;3.43;100.00;101284.91;5549344;32;34099;-69
2024/01/23 11:40:59;;;;;;;69.87;44.13;;;;;;;3.42;100.00;101279.75;5547875;32;34184;-70
2024/01/23 11:44:14;;;;;;;78.22;48.38;;;;;;;3.48;100.00;101271.50;5548626;32;34097;-71
2024/01/23 11:47:16;;;;;;;75.97;46.67;;;;;;;3.64;100.00;101269.53;5549547;32;34021;-71
2024/01/23 11:50:20;;;;;;;70.03;45.05;;;;;;;3.75;100.00;101268.81;5550298;32;34667;-71
2024/01/23 11:53:29;;;;;;;68.65;44.50;;;;;;;3.91;100.00;101265.06;5549963;32;34904;-69
2024/01/23 11:56:32;;;;;;;68.68;44.38;;;;;;;4.01;100.00;101272.31;5550863;32;34146;-70
2024/01/23 11:59:37;;;;;;;72.35;44.67;;;;;;;4.08;100.00;101271.78;5550929;32;34217;-70
2024/01/23 12:02:42;;;;;;;69.60;43.90;;;;;;;4.19;100.00;101289.44;5550926;32;34916;-70
2024/01/23 12:05:45;;;;;;;75.93;46.75;;;;;;;4.42;100.00;101286.06;5550726;32;34221;-69
2024/01/23 12:08:48;;;;;;;73.07;47.35;;;;;;;5.03;100.00;101289.66;5550102;32;34199;-70
2024/01/23 12:11:51;;;;;;;73.93;46.47;;;;;;;5.39;100.00;101284.34;5550731;32;34351;-70
2024/01/23 12:14:53;;;;;;;75.80;48.17;;;;;;;5.36;100.00;101286.38;5550418;32;34024;-69
2024/01/23 12:17:56;;;;;;;40.97;27.17;;;;;;;5.01;100.00;101287.13;5550498;32;33951;-69
2024/01/23 12:21:00;;;;;;;36.15;22.90;;;;;;;5.13;100.00;101295.94;5550642;32;34940;-70
2024/01/23 12:24:03;;;;;;;32.30;21.12;;;;;;;5.94;100.00;101296.91;5550601;32;34815;-68
2024/01/23 12:27:20;;;;;;;30.05;19.67;;;;;;;6.67;100.00;101290.41;5549782;32;34844;-69
2024/01/23 12:30:32;;;;;;;31.45;19.23;;;;;;;7.03;100.00;101305.09;5550558;32;33569;-69
2024/01/23 12:33:38;;;;;;;30.92;19.65;;;;;;;6.79;100.00;101305.25;5550897;32;34021;-68
2024/01/23 12:36:42;;;;;;;30.40;20.02;;;;;;;6.44;100.00;101318.53;5550495;32;34312;-69
2024/01/23 12:39:45;;;;;;;32.80;20.70;;;;;;;6.17;100.00;101323.28;5549754;32;35124;-68
2024/01/23 12:42:50;;;;;;;34.15;21.60;;;;;;;6.08;100.00;101311.66;5549867;32;34117;-69
2024/01/23 12:45:54;;;;;;;35.33;21.90;;;;;;;6.06;100.00;101318.84;5550779;32;33088;-68
2024/01/23 12:49:04;;;;;;;36.90;22.55;;;;;;;6.06;100.00;101310.94;5549449;32;34016;-70
2024/01/23 12:52:15;;;;;;;35.13;22.35;;;;;;;6.19;100.00;101321.41;5549937;32;34192;-69
2024/01/23 12:55:19;;;;;;;32.03;21.73;;;;;;;6.28;100.00;101312.78;5550074;32;35017;-69
2024/01/23 12:58:21;;;;;;;34.47;21.45;;;;;;;6.43;100.00;101323.00;5550166;32;34005;-70
2024/01/23 13:01:25;;;;;;;36.28;24.50;;;;;;;6.59;100.00;101335.81;5550384;32;34025;-69
2024/01/23 13:04:28;;;;;;;36.63;23.92;;;;;;;7.39;100.00;101321.47;5550215;32;34171;-70
2024/01/23 13:07:31;;;;;;;36.83;24.42;;;;;;;7.61;100.00;101331.09;5549143;32;34370;-69
2024/01/23 13:10:35;;;;;;;36.05;23.05;;;;;;;7.13;100.00;101338.56;5550051;32;34124;-68
2024/01/23 13:13:38;;;;;;;33.55;22.27;;;;;;;6.38;100.00;101333.06;5550106;32;34076;-69
2024/01/23 13:16:41;;;;;;;35.58;21.65;;;;;;;6.67;100.00;101340.50;5549834;32;34451;-68
2024/01/23 13:19:44;;;;;;;33.95;21.35;;;;;;;6.93;100.00;101348.03;5550210;32;34190;-69
2024/01/23 13:22:48;;;;;;;33.58;21.00;;;;;;;7.17;100.00;101350.53;5549955;32;34011;-68
2024/01/23 13:25:52;;;;;;;31.70;20.92;;;;;;;6.91;100.00;101342.06;5549476;32;34606;-69
2024/01/23 13:28:55;;;;;;;30.42;20.42;;;;;;;7.02;100.00;101351.75;5550647;32;33959;-68
2024/01/23 13:31:59;;;;;;;29.77;21.00;;;;;;;7.02;100.00;101346.47;5550178;32;34005;-69
2024/01/23 13:35:01;;;;;;;31.85;21.35;;;;;;;6.78;100.00;101361.59;5550232;32;34194;-68
2024/01/23 13:38:06;;;;;;;28.67;19.55;;;;;;;6.82;100.00;101363.06;5549439;32;33976;-68
2024/01/23 13:41:08;;;;;;;33.33;20.05;;;;;;;6.61;100.00;101359.44;5550404;32;33970;-68
2024/01/23 13:44:12;;;;;;;31.95;21.27;;;;;;;6.34;100.00;101363.22;5549438;32;34158;-68